Lakeview, Ohio
Current Conditions -  °F | °C
As of 11:10 PM on Wednesday 22 Oct 2014 (Local Time) from KEDJ Reporting Station
Overcast Overcast  
Wind Chill: 43°   Ceiling: 2600
Heat Index: 43°   Visibility: 10mi
Dew Point: 41°   Wind: 3mph
Humidity: 93%   Direction: 290°WNW
Pressure: 30.27"   Gusts: NA
Location:  40.48°N, 83.92°W
Report Text: KEDJ 230310Z AUTO 29003KT 10SM OVC026 06/05 A3027 RMK AO1
Loading
Personal Weather Stations






























Interactive Weather Map
Tropical Storm Tracking
New forecast layout! Learn more

10-Day Weather Forecast

Advertisements
Track Severe Weather on mobile